Time;durP1;ratioP1;P1;durP2;ratioP2;P2;SDS_P1;SDS_P2;PMS_P1;PMS_P2;Temp;Humidity;BMP_temperature;BMP_pressure;BME280_temperature;BME280_humidity;BME280_pressure;Samples;Min_cycle;Max_cycle;Signal;HPM_P1;HPM_P2
2023/08/01 00:01:10;;;;;;;1.70;1.40;;;20.30;68.80;;;;;;4956533;28;20049;-79
2023/08/01 00:03:36;;;;;;;1.30;1.20;;;20.20;68.80;;;;;;4959917;28;20035;-78
2023/08/01 00:06:02;;;;;;;1.58;1.35;;;20.30;68.80;;;;;;4928990;28;20034;-78
2023/08/01 00:08:27;;;;;;;1.25;1.15;;;20.30;69.50;;;;;;4949822;28;20034;-78
2023/08/01 00:10:53;;;;;;;2.10;1.45;;;20.20;68.80;;;;;;4960639;28;20038;-78
2023/08/01 00:13:19;;;;;;;1.42;1.20;;;20.20;68.80;;;;;;4923345;28;20033;-77
2023/08/01 00:15:44;;;;;;;1.42;1.33;;;20.20;68.90;;;;;;4960348;28;20129;-78
2023/08/01 00:18:10;;;;;;;1.30;1.20;;;20.20;68.90;;;;;;4957801;28;20074;-78
2023/08/01 00:20:36;;;;;;;1.67;1.38;;;20.20;68.90;;;;;;4958391;28;20462;-78
2023/08/01 01:11:35;;;;;;;2.30;1.50;;;20.00;69.10;;;;;;5052006;23;20112;31
2023/08/01 01:14:01;;;;;;;2.17;1.35;;;19.90;69.10;;;;;;4888833;29;20077;-78
2023/08/01 01:16:27;;;;;;;1.63;1.35;;;19.90;69.10;;;;;;4858116;29;20037;-79
2023/08/01 01:18:53;;;;;;;1.55;1.33;;;19.90;69.20;;;;;;4876260;29;20490;-79
2023/08/01 01:21:18;;;;;;;2.10;1.40;;;19.90;69.20;;;;;;4878130;29;20123;-79
2023/08/01 01:23:45;;;;;;;1.55;1.30;;;19.90;69.20;;;;;;4861644;29;20715;-79
2023/08/01 01:26:12;;;;;;;2.25;1.45;;;20.00;69.20;;;;;;4881020;29;20033;-79
2023/08/01 01:28:38;;;;;;;1.45;1.23;;;20.00;69.30;;;;;;4876595;29;20059;-78
2023/08/01 01:31:04;;;;;;;1.42;1.25;;;19.90;69.20;;;;;;4860862;29;20037;-79
2023/08/01 01:33:30;;;;;;;1.83;1.20;;;20.00;69.20;;;;;;4873024;29;20041;-79
2023/08/01 01:36:01;;;;;;;1.50;1.20;;;20.00;69.20;;;;;;4858646;29;20037;-79
2023/08/01 01:38:27;;;;;;;1.70;1.20;;;20.00;69.30;;;;;;4859724;29;20033;-80
2023/08/01 01:40:53;;;;;;;1.88;1.40;;;20.00;69.20;;;;;;4874519;29;20025;-79
2023/08/01 01:43:18;;;;;;;1.88;1.30;;;20.00;69.20;;;;;;4861258;29;20436;-79
2023/08/01 01:45:44;;;;;;;1.80;1.30;;;20.00;69.20;;;;;;4857727;29;20068;-79
2023/08/01 01:48:10;;;;;;;1.40;1.00;;;20.00;69.20;;;;;;4870750;29;20080;-78
2023/08/01 01:50:35;;;;;;;1.52;1.27;;;20.00;69.30;;;;;;4866588;29;20410;-78
2023/08/01 01:53:01;;;;;;;1.65;1.30;;;19.90;69.20;;;;;;4857579;29;20037;-79
2023/08/01 01:55:27;;;;;;;1.48;1.20;;;19.90;69.20;;;;;;4891891;29;20025;-78
2023/08/01 01:57:53;;;;;;;1.77;1.50;;;20.00;69.20;;;;;;4857658;29;20037;-78
2023/08/01 02:00:20;;;;;;;2.53;1.42;;;19.90;69.20;;;;;;4870937;29;20036;-79
2023/08/01 02:02:45;;;;;;;2.38;1.35;;;19.90;69.20;;;;;;4869371;29;20376;-78
2023/08/01 02:05:11;;;;;;;2.10;1.63;;;19.90;69.20;;;;;;4876046;29;20065;-79
2023/08/01 02:07:37;;;;;;;2.20;1.40;;;19.90;69.20;;;;;;4875201;29;20044;-79
2023/08/01 02:10:03;;;;;;;1.50;1.30;;;19.90;69.20;;;;;;4844955;29;20131;-78
2023/08/01 02:12:34;;;;;;;1.98;1.40;;;19.90;69.30;;;;;;4882982;29;20056;-78
2023/08/01 02:15:00;;;;;;;1.77;1.20;;;19.90;69.30;;;;;;4894009;29;20033;-79
2023/08/01 02:17:26;;;;;;;2.50;1.50;;;19.90;69.30;;;;;;4889815;29;20070;-78
2023/08/01 02:19:52;;;;;;;2.33;1.27;;;19.90;69.30;;;;;;4891577;29;20029;-79
2023/08/01 02:22:18;;;;;;;1.80;1.30;;;19.90;69.30;;;;;;4893489;29;20092;-79
2023/08/01 02:24:43;;;;;;;1.92;1.48;;;19.80;69.30;;;;;;4894849;29;20553;-78
2023/08/01 02:27:09;;;;;;;2.20;1.45;;;19.80;69.30;;;;;;4893700;29;20553;-79
2023/08/01 02:29:35;;;;;;;2.13;1.67;;;19.80;69.30;;;;;;4893519;29;20127;-79
2023/08/01 02:32:01;;;;;;;2.05;1.70;;;19.80;69.30;;;;;;4892618;29;20059;-79
2023/08/01 02:34:27;;;;;;;2.28;1.40;;;19.80;69.40;;;;;;4892224;29;20052;-79
2023/08/01 02:36:53;;;;;;;2.22;1.27;;;19.80;69.30;;;;;;4894025;29;20044;-79
2023/08/01 02:39:19;;;;;;;1.80;1.50;;;19.80;69.30;;;;;;4895871;29;20124;-79
2023/08/01 02:41:44;;;;;;;2.15;1.40;;;19.80;69.30;;;;;;4896918;29;20409;-79
2023/08/01 02:44:10;;;;;;;1.75;1.35;;;19.70;69.30;;;;;;4896046;29;20033;-79
2023/08/01 02:46:36;;;;;;;3.33;1.50;;;19.70;69.30;;;;;;4905252;29;20164;-79
2023/08/01 02:49:02;;;;;;;2.08;1.50;;;19.70;69.30;;;;;;4911809;29;20039;-79
2023/08/01 02:51:28;;;;;;;1.77;1.30;;;19.70;69.30;;;;;;4882436;29;20055;-79
2023/08/01 02:53:54;;;;;;;2.15;1.70;;;19.70;69.30;;;;;;4895663;29;20479;-79
2023/08/01 02:56:19;;;;;;;2.10;1.60;;;19.70;69.40;;;;;;4866549;29;20040;-80
2023/08/01 02:58:45;;;;;;;2.17;1.60;;;19.70;69.40;;;;;;4866092;29;20025;-79
2023/08/01 03:01:12;;;;;;;2.38;1.50;;;19.70;69.40;;;;;;4880994;29;20478;-79
2023/08/01 03:03:37;;;;;;;2.22;1.48;;;19.70;69.40;;;;;;4896810;29;20037;-80
2023/08/01 03:06:03;;;;;;;2.33;1.58;;;19.60;69.30;;;;;;4891819;29;20037;-79
2023/08/01 03:08:29;;;;;;;2.00;1.50;;;19.60;69.30;;;;;;4896193;29;20067;-79
2023/08/01 03:10:55;;;;;;;2.05;1.38;;;19.60;69.30;;;;;;4878878;29;20474;-79
2023/08/01 03:13:21;;;;;;;1.58;1.48;;;19.60;69.30;;;;;;4896516;29;20052;-79
2023/08/01 03:15:47;;;;;;;2.50;1.73;;;19.60;69.30;;;;;;4881001;29;20092;-80
2023/08/01 03:18:14;;;;;;;3.38;1.50;;;19.60;69.30;;;;;;4896712;29;20036;-80
2023/08/01 03:20:40;;;;;;;2.08;1.60;;;19.60;69.40;;;;;;4897439;29;20104;-79
2023/08/01 03:23:06;;;;;;;2.22;1.58;;;19.60;69.30;;;;;;4881850;29;20037;-79
2023/08/01 03:25:32;;;;;;;2.30;1.50;;;19.60;69.30;;;;;;4893249;29;20096;-79
2023/08/01 03:27:59;;;;;;;2.13;1.55;;;19.50;69.30;;;;;;4895491;29;20092;-79
2023/08/01 03:30:25;;;;;;;1.75;1.40;;;19.50;69.30;;;;;;4910342;29;20482;-79
2023/08/01 03:32:51;;;;;;;2.38;1.67;;;19.50;69.30;;;;;;4911984;29;20029;-79
2023/08/01 03:35:17;;;;;;;2.55;1.63;;;19.50;69.30;;;;;;4911775;29;20041;-80
2023/08/01 03:37:43;;;;;;;2.55;1.67;;;19.50;69.30;;;;;;4877983;29;20447;-79
2023/08/01 03:40:10;;;;;;;2.55;1.40;;;19.50;69.40;;;;;;4896273;29;20247;-80
2023/08/01 03:42:36;;;;;;;2.30;1.58;;;19.50;69.40;;;;;;4895287;29;20112;-79
2023/08/01 03:45:03;;;;;;;3.17;1.70;;;19.50;69.40;;;;;;4892570;29;20032;-80
2023/08/01 03:47:29;;;;;;;2.75;1.83;;;19.40;69.70;;;;;;4897925;29;20036;-80
2023/08/01 03:49:55;;;;;;;2.95;1.58;;;19.40;69.40;;;;;;4891509;29;20039;-80
2023/08/01 03:52:21;;;;;;;2.47;1.45;;;19.40;69.40;;;;;;4893208;29;20089;-79
2023/08/01 03:54:48;;;;;;;1.85;1.50;;;19.40;69.40;;;;;;4881059;29;20960;-79
2023/08/01 03:57:14;;;;;;;2.72;1.70;;;19.40;69.40;;;;;;4894067;29;20072;-79
2023/08/01 03:59:40;;;;;;;3.00;1.70;;;19.40;69.40;;;;;;4896640;29;20104;-79
2023/08/01 04:02:05;;;;;;;2.97;1.77;;;19.40;69.40;;;;;;4880165;29;20037;-80
2023/08/01 04:04:31;;;;;;;2.17;1.58;;;19.40;69.40;;;;;;4910776;29;20037;-79
2023/08/01 04:06:57;;;;;;;2.65;1.77;;;19.40;69.50;;;;;;4896515;29;20056;-78
2023/08/01 04:09:23;;;;;;;2.58;1.50;;;19.40;69.50;;;;;;4894372;29;20511;-81
2023/08/01 04:11:48;;;;;;;3.10;1.60;;;19.40;69.50;;;;;;4865806;29;20040;-79
2023/08/01 04:14:14;;;;;;;2.78;1.83;;;19.40;69.50;;;;;;4881672;29;20040;-79
2023/08/01 04:16:40;;;;;;;2.88;1.67;;;19.40;69.50;;;;;;4896767;29;20055;-78
2023/08/01 04:19:06;;;;;;;2.40;1.50;;;19.40;69.50;;;;;;4893426;29;20470;-79
2023/08/01 04:21:31;;;;;;;2.50;1.73;;;19.40;69.50;;;;;;4895756;29;20104;-79
2023/08/01 04:23:57;;;;;;;2.63;1.58;;;19.40;69.50;;;;;;4896142;29;20167;-79
2023/08/01 04:26:23;;;;;;;3.38;1.65;;;19.30;69.50;;;;;;4889506;29;20037;-79
2023/08/01 04:28:48;;;;;;;2.03;1.70;;;19.30;69.50;;;;;;4879559;29;20040;-79
2023/08/01 04:31:15;;;;;;;2.47;1.60;;;19.30;69.50;;;;;;4893362;29;20040;-79
2023/08/01 04:33:40;;;;;;;4.28;1.75;;;19.30;69.50;;;;;;4896061;29;20037;-79
2023/08/01 04:36:06;;;;;;;4.18;1.83;;;19.30;69.50;;;;;;4891754;29;20049;-79
2023/08/01 04:38:32;;;;;;;1.80;1.63;;;19.30;69.60;;;;;;4891647;29;20547;-79
2023/08/01 04:40:57;;;;;;;1.90;1.50;;;19.30;69.60;;;;;;4890514;29;20505;-81
2023/08/01 04:43:23;;;;;;;2.13;1.63;;;19.30;69.60;;;;;;4879630;29;20497;-81
2023/08/01 04:45:49;;;;;;;2.83;1.80;;;19.30;70.20;;;;;;4864791;29;20149;-80
2023/08/01 04:48:15;;;;;;;2.75;1.70;;;19.30;69.60;;;;;;4879059;29;20064;-79
2023/08/01 04:50:40;;;;;;;2.53;1.48;;;19.30;69.60;;;;;;4900883;29;20036;-78
2023/08/01 04:53:06;;;;;;;3.03;1.58;;;19.30;69.60;;;;;;4897443;29;20573;-79
2023/08/01 04:55:32;;;;;;;2.03;1.55;;;19.30;69.60;;;;;;4896609;29;20079;-80
2023/08/01 04:57:58;;;;;;;1.75;1.40;;;19.30;69.60;;;;;;4863161;29;20111;-79
2023/08/01 05:00:23;;;;;;;2.25;1.63;;;19.30;69.60;;;;;;4910772;29;20033;-79
2023/08/01 05:02:49;;;;;;;2.30;1.50;;;19.30;69.60;;;;;;4887694;29;20065;-80
2023/08/01 05:05:16;;;;;;;2.10;1.60;;;19.30;69.60;;;;;;4892485;29;20032;-82
2023/08/01 05:07:42;;;;;;;2.35;1.70;;;19.30;69.60;;;;;;4896435;29;20037;-81
2023/08/01 05:10:08;;;;;;;3.45;1.90;;;19.30;69.60;;;;;;4895496;29;20037;-81
2023/08/01 05:12:34;;;;;;;2.60;1.63;;;19.30;69.70;;;;;;4879479;29;20057;-81
2023/08/01 05:14:59;;;;;;;2.35;1.73;;;19.30;69.70;;;;;;4903973;29;20040;-80
2023/08/01 05:17:25;;;;;;;2.42;1.60;;;19.30;69.70;;;;;;4893693;29;20382;-81
2023/08/01 05:19:51;;;;;;;3.20;1.80;;;19.30;69.70;;;;;;4905951;29;20416;-80
2023/08/01 05:22:17;;;;;;;2.53;1.50;;;19.30;69.70;;;;;;4891713;29;20055;-81
2023/08/01 05:24:42;;;;;;;2.20;1.70;;;19.30;69.70;;;;;;4892384;29;20032;-81
2023/08/01 05:27:08;;;;;;;2.78;1.65;;;19.30;69.70;;;;;;4859745;29;20029;-79
2023/08/01 05:29:34;;;;;;;2.63;1.75;;;19.30;69.70;;;;;;4875378;29;20535;-80
2023/08/01 05:32:00;;;;;;;2.58;1.60;;;19.30;69.70;;;;;;4892986;29;20516;-80
2023/08/01 05:34:25;;;;;;;2.28;1.50;;;19.30;69.70;;;;;;4892200;29;20501;-81
2023/08/01 05:36:51;;;;;;;2.22;1.52;;;19.20;69.70;;;;;;4906901;29;20317;-80
2023/08/01 05:39:17;;;;;;;2.88;1.70;;;19.20;69.70;;;;;;4877148;29;20107;-81
2023/08/01 05:41:43;;;;;;;2.17;1.60;;;19.30;69.70;;;;;;4887018;29;20041;-81
2023/08/01 05:44:09;;;;;;;2.45;1.70;;;19.30;69.80;;;;;;4886805;29;20037;-81
2023/08/01 05:46:35;;;;;;;2.50;1.65;;;19.30;69.80;;;;;;4903941;29;20040;-80
2023/08/01 05:49:00;;;;;;;2.10;1.58;;;19.30;69.80;;;;;;4889799;29;20043;-80
2023/08/01 05:51:26;;;;;;;3.40;1.92;;;19.30;69.80;;;;;;4880218;29;20555;-80
2023/08/01 05:53:52;;;;;;;2.30;1.70;;;19.30;69.80;;;;;;4896623;29;20080;-81
2023/08/01 05:56:18;;;;;;;2.53;1.90;;;19.30;69.80;;;;;;4888864;29;20045;-81
2023/08/01 05:58:43;;;;;;;2.28;1.73;;;19.30;69.70;;;;;;4895822;29;20494;-80
2023/08/01 06:01:11;;;;;;;1.75;1.40;;;19.30;69.80;;;;;;4895446;29;20029;-81
2023/08/01 06:03:37;;;;;;;2.60;1.73;;;19.30;69.80;;;;;;4895295;29;20390;-81
2023/08/01 06:06:04;;;;;;;3.00;1.80;;;19.30;69.80;;;;;;4901248;29;20028;-80
2023/08/01 06:08:30;;;;;;;2.00;1.60;;;19.30;69.80;;;;;;4881008;29;20131;-80
2023/08/01 06:10:56;;;;;;;3.30;2.13;;;19.30;69.80;;;;;;4879666;29;20502;-81
2023/08/01 06:13:21;;;;;;;3.20;1.65;;;19.30;69.80;;;;;;4896410;29;20044;-80
2023/08/01 06:15:47;;;;;;;3.25;1.90;;;19.30;69.80;;;;;;4902344;29;20528;-81
2023/08/01 06:18:13;;;;;;;3.15;1.85;;;19.30;69.80;;;;;;4895812;29;20064;-81
2023/08/01 06:20:39;;;;;;;2.58;1.77;;;19.30;69.80;;;;;;4895353;29;20037;-79
2023/08/01 06:23:05;;;;;;;3.80;1.70;;;19.30;69.80;;;;;;4895644;29;20087;-81
2023/08/01 06:25:31;;;;;;;2.95;1.90;;;19.40;69.90;;;;;;4911029;29;20115;-81
2023/08/01 06:27:57;;;;;;;3.83;1.92;;;19.30;69.80;;;;;;4896522;29;20037;-81
2023/08/01 06:30:22;;;;;;;3.13;1.80;;;19.40;69.90;;;;;;4910878;29;20040;-81
2023/08/01 06:32:48;;;;;;;2.67;1.60;;;19.40;69.80;;;;;;4864046;29;20068;-81
2023/08/01 06:35:14;;;;;;;2.88;1.60;;;19.40;69.80;;;;;;4865717;29;20047;-80
2023/08/01 06:37:40;;;;;;;2.47;1.77;;;19.40;69.80;;;;;;4895164;29;20494;-80
2023/08/01 06:40:07;;;;;;;1.95;1.67;;;19.30;69.80;;;;;;4896106;29;20037;-81
2023/08/01 06:42:33;;;;;;;2.85;1.77;;;19.40;69.80;;;;;;4894908;29;20065;-81
2023/08/01 06:44:59;;;;;;;3.35;1.95;;;19.40;69.80;;;;;;4910434;29;20033;-81
2023/08/01 06:47:24;;;;;;;3.17;1.80;;;19.40;69.80;;;;;;4904519;29;20040;-80
2023/08/01 06:49:50;;;;;;;2.03;1.63;;;19.40;70.40;;;;;;4891839;29;20048;-81
2023/08/01 06:52:16;;;;;;;3.55;1.90;;;19.40;69.80;;;;;;4895544;29;20363;-80
2023/08/01 06:54:42;;;;;;;2.45;1.77;;;19.40;69.80;;;;;;4894581;29;20040;-81
2023/08/01 06:57:08;;;;;;;2.65;1.80;;;19.40;69.80;;;;;;4894898;29;20044;-81
2023/08/01 06:59:33;;;;;;;2.53;1.70;;;19.40;69.80;;;;;;4894691;29;20119;-81
2023/08/01 07:02:00;;;;;;;2.83;1.75;;;19.50;69.80;;;;;;4872863;29;20035;-81
2023/08/01 07:04:26;;;;;;;2.38;1.80;;;19.50;69.90;;;;;;4910691;29;20052;-81
2023/08/01 07:06:51;;;;;;;2.92;1.88;;;19.40;69.80;;;;;;4886739;29;20079;-81
2023/08/01 07:09:17;;;;;;;3.00;1.92;;;19.50;69.80;;;;;;4894982;29;20041;-81
2023/08/01 07:11:43;;;;;;;2.85;1.70;;;19.50;69.80;;;;;;4893725;29;20112;-81
2023/08/01 07:14:09;;;;;;;3.83;2.00;;;19.50;69.90;;;;;;4895517;29;20100;-80
2023/08/01 07:16:34;;;;;;;3.83;2.00;;;19.50;69.80;;;;;;4902246;29;20056;-80
2023/08/01 07:19:01;;;;;;;2.80;1.80;;;19.60;70.50;;;;;;4894813;29;20037;-81
2023/08/01 07:21:27;;;;;;;2.97;1.77;;;19.60;69.90;;;;;;4896436;29;20032;-81
2023/08/01 07:23:52;;;;;;;3.28;1.70;;;19.60;69.80;;;;;;4882679;29;20084;-81
2023/08/01 07:26:18;;;;;;;3.47;2.17;;;19.60;69.90;;;;;;4864631;29;20442;-81
2023/08/01 07:28:44;;;;;;;2.75;1.80;;;19.60;69.80;;;;;;4887667;29;20029;-80
2023/08/01 07:31:10;;;;;;;2.75;1.83;;;19.60;69.80;;;;;;4913857;29;20033;-81
2023/08/01 07:33:36;;;;;;;3.60;1.90;;;19.70;69.90;;;;;;4890210;29;20497;-81
2023/08/01 07:36:02;;;;;;;2.47;1.60;;;19.60;69.80;;;;;;4897543;29;20393;-81
2023/08/01 07:38:28;;;;;;;2.35;1.40;;;19.70;69.90;;;;;;4882517;29;20043;-81
2023/08/01 07:40:55;;;;;;;3.13;1.70;;;19.70;69.90;;;;;;4866937;29;20072;-81
2023/08/01 07:43:20;;;;;;;2.42;1.73;;;19.70;69.90;;;;;;4898330;29;20048;-81
2023/08/01 07:45:46;;;;;;;3.47;1.77;;;19.70;69.90;;;;;;4882040;29;20496;-81
2023/08/01 07:48:12;;;;;;;2.70;1.80;;;19.70;69.90;;;;;;4898171;29;20029;-80
2023/08/01 07:50:38;;;;;;;2.28;1.63;;;19.70;69.90;;;;;;4881961;29;20036;-80
2023/08/01 07:53:04;;;;;;;3.05;1.80;;;19.80;69.90;;;;;;4882200;29;20493;-80
2023/08/01 07:55:34;;;;;;;2.42;1.65;;;19.80;69.80;;;;;;4897707;29;20173;-80
2023/08/01 07:58:00;;;;;;;2.53;1.63;;;19.80;69.90;;;;;;4897442;29;20047;-80
2023/08/01 08:00:25;;;;;;;2.72;1.70;;;19.80;69.80;;;;;;4866889;29;20029;-80
2023/08/01 08:02:51;;;;;;;3.10;1.90;;;19.90;69.80;;;;;;4879064;29;20633;-80
2023/08/01 08:05:17;;;;;;;2.55;1.48;;;19.90;69.80;;;;;;4907961;29;20056;-81
2023/08/01 08:07:42;;;;;;;2.50;1.50;;;19.90;69.70;;;;;;4897309;29;20406;-80
2023/08/01 08:10:08;;;;;;;2.63;1.50;;;19.90;69.60;;;;;;4894547;29;20032;-81
2023/08/01 08:12:34;;;;;;;1.60;1.50;;;20.00;69.60;;;;;;4893745;29;20542;-80
2023/08/01 08:14:59;;;;;;;2.38;1.63;;;20.00;69.50;;;;;;4891417;29;20180;-80
2023/08/01 08:17:25;;;;;;;3.22;1.88;;;20.10;69.50;;;;;;4897576;29;20032;-79
2023/08/01 08:19:51;;;;;;;2.13;1.48;;;20.10;69.50;;;;;;4891983;29;20430;-79
2023/08/01 08:22:17;;;;;;;2.67;1.85;;;20.10;69.40;;;;;;4899011;29;20550;-80
2023/08/01 08:24:42;;;;;;;1.98;1.50;;;20.20;69.40;;;;;;4895092;29;20092;-80
2023/08/01 08:27:08;;;;;;;3.17;1.58;;;20.20;69.30;;;;;;4865612;29;20044;-80
2023/08/01 08:29:34;;;;;;;2.10;1.60;;;20.20;69.20;;;;;;4899174;29;20040;-80
2023/08/01 08:31:59;;;;;;;2.65;1.63;;;20.30;69.20;;;;;;4881403;29;20037;-81
2023/08/01 08:34:25;;;;;;;3.10;1.60;;;20.30;69.20;;;;;;4894201;29;20081;-80
2023/08/01 08:36:53;;;;;;;2.67;1.70;;;20.30;69.10;;;;;;4876491;29;20391;-80
2023/08/01 08:39:18;;;;;;;3.08;1.90;;;20.40;69.10;;;;;;4879935;29;20040;-80
2023/08/01 08:41:51;;;;;;;2.35;1.55;;;20.50;69.10;;;;;;4881625;29;20044;-80
2023/08/01 08:44:21;;;;;;;2.03;1.60;;;20.50;69.10;;;;;;4893979;29;20486;-80
2023/08/01 08:46:52;;;;;;;2.83;1.48;;;20.50;69.00;;;;;;4875165;29;20520;-80
2023/08/01 08:49:21;;;;;;;2.33;1.58;;;20.50;69.00;;;;;;4865404;29;20025;-80
2023/08/01 08:51:47;;;;;;;2.50;1.55;;;20.50;68.90;;;;;;4893096;29;20025;-80
2023/08/01 08:54:15;;;;;;;1.92;1.40;;;20.60;69.00;;;;;;4890992;29;20024;-80
2023/08/01 08:56:41;;;;;;;2.40;1.52;;;20.60;68.90;;;;;;4881656;29;20037;-81
2023/08/01 08:59:10;;;;;;;3.03;1.50;;;20.60;68.90;;;;;;4895885;29;20040;-80
2023/08/01 09:01:39;;;;;;;2.65;1.52;;;20.60;68.90;;;;;;4895608;29;20505;-80
2023/08/01 09:04:06;;;;;;;3.17;1.48;;;20.60;68.90;;;;;;4891616;29;20044;-81
2023/08/01 09:06:45;;;;;;;2.63;1.50;;;20.60;68.90;;;;;;4888751;29;20511;-80
2023/08/01 09:09:14;;;;;;;4.63;1.80;;;20.70;69.00;;;;;;4911964;29;20107;-81
2023/08/01 09:11:48;;;;;;;2.30;1.50;;;20.70;68.90;;;;;;4880413;29;20068;-80
2023/08/01 09:14:14;;;;;;;2.78;1.55;;;20.70;68.80;;;;;;4880540;29;20083;-81
2023/08/01 09:16:41;;;;;;;2.45;1.67;;;20.80;68.80;;;;;;4880472;29;20051;-80
2023/08/01 09:19:07;;;;;;;1.58;1.27;;;20.80;68.70;;;;;;4857719;29;20115;-79
2023/08/01 09:21:34;;;;;;;1.83;1.40;;;20.80;68.70;;;;;;4893289;29;20088;-80
2023/08/01 09:24:17;;;;;;;2.13;1.45;;;20.90;68.90;;;;;;4894395;29;20033;-80
2023/08/01 09:26:43;;;;;;;2.75;1.35;;;20.90;69.40;;;;;;4894976;29;20055;-80
2023/08/01 09:29:09;;;;;;;2.47;1.40;;;21.00;68.60;;;;;;4889843;29;20068;-80
2023/08/01 09:31:37;;;;;;;2.92;1.63;;;21.00;68.60;;;;;;4898062;29;20505;-80
2023/08/01 09:34:07;;;;;;;2.47;1.30;;;21.00;69.20;;;;;;4874984;29;20029;-78
2023/08/01 09:36:34;;;;;;;2.25;1.40;;;21.10;68.50;;;;;;4888943;29;20044;-80
2023/08/01 09:39:04;;;;;;;2.42;1.40;;;21.10;68.50;;;;;;4891408;29;20085;-81
2023/08/01 09:41:30;;;;;;;1.45;1.20;;;21.20;68.50;;;;;;4889854;29;20028;-79
2023/08/01 09:43:57;;;;;;;1.30;1.13;;;21.20;68.30;;;;;;4907557;29;20021;-80
2023/08/01 09:46:23;;;;;;;2.60;1.40;;;21.30;68.30;;;;;;4888229;29;20033;-80
2023/08/01 09:48:49;;;;;;;2.17;1.27;;;21.30;68.20;;;;;;4895231;29;20036;-80
2023/08/01 09:51:18;;;;;;;1.60;1.27;;;21.40;68.90;;;;;;4891539;29;20067;-80
2023/08/01 09:53:55;;;;;;;1.77;1.23;;;21.40;68.20;;;;;;4894773;29;20073;-80
2023/08/01 09:56:23;;;;;;;1.80;1.30;;;21.50;68.20;;;;;;4878293;29;20040;-81
2023/08/01 09:58:50;;;;;;;1.55;1.10;;;21.50;68.10;;;;;;4888506;29;20029;-80
2023/08/01 10:01:18;;;;;;;1.67;1.20;;;21.60;68.10;;;;;;4895314;29;20036;-81
2023/08/01 10:03:50;;;;;;;1.35;1.00;;;21.60;68.00;;;;;;4895560;29;20032;-81
2023/08/01 10:06:21;;;;;;;1.20;1.10;;;21.70;67.90;;;;;;4895253;29;20036;-81
2023/08/01 10:08:48;;;;;;;2.20;1.15;;;21.80;67.90;;;;;;4895377;29;20033;-80
2023/08/01 10:11:20;;;;;;;1.92;1.45;;;21.80;67.80;;;;;;4893314;29;20032;-80
2023/08/01 10:13:46;;;;;;;1.50;1.30;;;21.90;67.80;;;;;;4896824;29;20131;-80
2023/08/01 10:16:14;;;;;;;2.08;1.20;;;22.00;67.70;;;;;;4903308;29;20039;-81
2023/08/01 10:18:41;;;;;;;2.17;1.65;;;22.00;67.50;;;;;;4895306;29;20043;-80
2023/08/01 10:21:09;;;;;;;1.52;1.15;;;22.00;67.50;;;;;;4879610;29;20036;-81
2023/08/01 10:23:37;;;;;;;1.63;1.20;;;22.10;67.40;;;;;;4904803;29;20144;-80
2023/08/01 10:26:06;;;;;;;1.40;1.20;;;22.20;67.40;;;;;;4909124;29;20485;-82
2023/08/01 10:28:32;;;;;;;3.05;1.60;;;22.20;67.30;;;;;;4879956;29;20107;-80
2023/08/01 10:31:15;;;;;;;1.15;1.00;;;22.30;67.20;;;;;;4872004;29;20136;-80
2023/08/01 10:33:43;;;;;;;1.52;0.93;;;22.30;67.10;;;;;;4880613;29;20132;-78
2023/08/01 10:36:20;;;;;;;1.85;1.27;;;22.40;67.00;;;;;;4895150;29;20100;-78
2023/08/01 10:38:56;;;;;;;1.25;1.02;;;22.50;67.00;;;;;;4895058;29;20137;-78
2023/08/01 10:41:26;;;;;;;2.38;1.38;;;22.60;66.90;;;;;;4895170;29;20466;-86
2023/08/01 10:43:52;;;;;;;2.58;1.48;;;22.60;66.80;;;;;;4905803;29;20037;-82
2023/08/01 10:46:18;;;;;;;2.10;1.30;;;22.60;66.80;;;;;;4893384;29;20036;-82
2023/08/01 10:48:51;;;;;;;1.35;1.10;;;22.70;66.70;;;;;;4863387;29;20033;-82
2023/08/01 10:51:18;;;;;;;1.75;1.20;;;22.70;66.70;;;;;;4900201;29;20124;-81
2023/08/01 10:53:43;;;;;;;1.45;1.13;;;22.80;66.60;;;;;;4889860;29;20466;-82
2023/08/01 10:56:17;;;;;;;1.30;1.20;;;22.80;66.50;;;;;;4879463;29;20151;-81
2023/08/01 10:58:42;;;;;;;2.08;1.33;;;22.90;66.50;;;;;;4903151;29;20033;-82
2023/08/01 11:01:08;;;;;;;1.92;1.23;;;23.00;66.50;;;;;;4894229;29;20427;-81
2023/08/01 11:03:38;;;;;;;1.58;1.02;;;23.00;66.50;;;;;;4896397;29;20161;-81
2023/08/01 11:06:04;;;;;;;1.55;1.15;;;23.00;66.60;;;;;;4861557;29;20379;-82
2023/08/01 11:08:43;;;;;;;1.75;1.30;;;23.00;67.20;;;;;;4888464;29;20037;-82
2023/08/01 11:11:13;;;;;;;1.20;1.10;;;23.00;66.60;;;;;;4880140;29;20028;-83
2023/08/01 11:13:38;;;;;;;1.95;1.02;;;23.10;66.60;;;;;;4890425;29;20385;-83
2023/08/01 11:16:05;;;;;;;1.80;1.17;;;23.10;66.60;;;;;;4910992;29;20058;-82
2023/08/01 11:18:44;;;;;;;1.30;1.13;;;23.10;66.70;;;;;;4899649;29;20035;-82
2023/08/01 11:21:10;;;;;;;1.52;1.05;;;23.10;66.80;;;;;;4880469;29;20028;-82
2023/08/01 11:23:39;;;;;;;3.13;1.35;;;23.20;66.80;;;;;;4900825;29;20028;-82
2023/08/01 11:26:08;;;;;;;2.15;1.23;;;23.20;66.80;;;;;;4875340;29;20076;-82
2023/08/01 11:28:34;;;;;;;1.83;1.17;;;23.20;66.90;;;;;;4898051;29;20036;-82
2023/08/01 11:31:00;;;;;;;1.48;1.10;;;23.30;67.00;;;;;;4892625;29;20471;-81
2023/08/01 11:33:25;;;;;;;1.92;1.33;;;23.30;67.00;;;;;;4896345;29;20469;-82
2023/08/01 11:35:53;;;;;;;2.50;1.42;;;23.30;67.10;;;;;;4896136;29;20561;-82
2023/08/01 11:38:21;;;;;;;1.48;1.13;;;23.30;67.10;;;;;;4898523;29;20051;-81
2023/08/01 11:40:49;;;;;;;2.00;1.27;;;23.30;67.20;;;;;;4888552;29;20031;-82
2023/08/01 11:43:15;;;;;;;1.00;0.95;;;23.40;67.30;;;;;;4897058;29;20024;-82
2023/08/01 11:45:55;;;;;;;1.98;1.20;;;23.40;67.40;;;;;;4901602;29;20128;-81
2023/08/01 11:48:23;;;;;;;2.13;1.23;;;23.40;67.50;;;;;;4880140;29;20037;-82
2023/08/01 11:50:49;;;;;;;1.88;1.10;;;23.40;67.40;;;;;;4898516;29;20128;-82
2023/08/01 11:53:22;;;;;;;1.73;1.10;;;23.40;67.50;;;;;;4878818;29;20476;-82
2023/08/01 11:55:56;;;;;;;1.70;1.00;;;23.40;67.60;;;;;;4890487;29;20378;-83
2023/08/01 11:58:28;;;;;;;1.20;1.05;;;23.40;67.70;;;;;;4864303;29;20048;-83
2023/08/01 12:01:11;;;;;;;1.25;1.15;;;23.50;67.70;;;;;;4875839;29;20037;-82
2023/08/01 12:03:50;;;;;;;1.98;1.30;;;23.50;67.80;;;;;;4897959;29;20059;-83
2023/08/01 12:06:18;;;;;;;1.17;1.00;;;23.50;67.80;;;;;;4892735;29;20028;-82
2023/08/01 12:08:45;;;;;;;2.22;1.10;;;23.60;67.80;;;;;;4894766;29;20043;-82
2023/08/01 12:11:18;;;;;;;1.90;1.20;;;23.60;67.80;;;;;;4897141;29;20041;-81
2023/08/01 12:13:44;;;;;;;1.98;1.10;;;23.60;67.90;;;;;;4874264;29;20128;-82
2023/08/01 12:16:10;;;;;;;1.42;1.30;;;23.60;67.80;;;;;;4897640;29;20470;-83
2023/08/01 12:18:37;;;;;;;1.73;1.27;;;23.60;67.90;;;;;;4866681;29;20044;-82
2023/08/01 12:21:05;;;;;;;1.40;1.10;;;23.70;67.90;;;;;;4882197;29;20036;-83
2023/08/01 12:23:31;;;;;;;2.50;1.20;;;23.70;67.90;;;;;;4866581;29;20032;-83
2023/08/01 12:25:57;;;;;;;1.95;1.33;;;23.70;67.90;;;;;;4897296;29;20150;-80
2023/08/01 12:28:23;;;;;;;1.00;0.82;;;23.70;67.80;;;;;;4903109;29;20064;-83
2023/08/01 12:30:51;;;;;;;2.38;1.30;;;23.70;67.80;;;;;;4897505;29;20036;-83
2023/08/01 12:33:16;;;;;;;1.35;1.00;;;23.80;67.80;;;;;;4895192;29;20037;-83
2023/08/01 12:35:42;;;;;;;1.08;0.90;;;23.80;67.70;;;;;;4877247;29;20060;-83
2023/08/01 12:38:09;;;;;;;1.63;1.17;;;23.80;67.60;;;;;;4888477;29;20040;-83
2023/08/01 12:40:35;;;;;;;1.42;1.23;;;23.80;67.50;;;;;;4897250;29;20044;-83
2023/08/01 12:43:00;;;;;;;1.73;1.08;;;23.80;67.50;;;;;;4897167;29;20088;-83
2023/08/01 12:45:26;;;;;;;2.25;1.15;;;23.90;67.50;;;;;;4896852;29;20413;-83
2023/08/01 12:47:52;;;;;;;2.13;1.30;;;23.90;67.40;;;;;;4891309;29;20251;-83
2023/08/01 12:50:17;;;;;;;1.67;1.00;;;23.90;67.40;;;;;;4893716;29;20423;-83
2023/08/01 12:52:43;;;;;;;1.63;1.10;;;23.90;67.20;;;;;;4891776;29;20031;-83
2023/08/01 12:55:09;;;;;;;1.30;0.95;;;24.00;67.20;;;;;;4903260;29;20079;-82
2023/08/01 12:57:35;;;;;;;1.35;0.95;;;23.90;67.10;;;;;;4889638;29;20049;-83
2023/08/01 13:00:00;;;;;;;2.05;1.17;;;24.00;67.10;;;;;;4897918;29;20045;-83
2023/08/01 13:02:27;;;;;;;2.03;1.10;;;24.00;67.00;;;;;;4895705;29;20033;-83
2023/08/01 13:04:52;;;;;;;2.28;1.20;;;24.00;67.00;;;;;;4881238;29;20040;-84
2023/08/01 13:07:18;;;;;;;1.20;0.82;;;24.00;66.90;;;;;;4898884;29;20172;-83
2023/08/01 13:09:44;;;;;;;3.22;1.40;;;24.00;66.80;;;;;;4903727;29;20040;-83
2023/08/01 13:12:10;;;;;;;1.48;1.20;;;24.00;66.80;;;;;;4907285;29;20089;-83
2023/08/01 13:14:36;;;;;;;2.38;1.30;;;24.00;66.70;;;;;;4904263;29;20503;-83
2023/08/01 13:17:02;;;;;;;1.35;1.10;;;24.00;66.70;;;;;;4879976;29;20049;-82
2023/08/01 13:19:28;;;;;;;1.65;1.05;;;24.00;66.70;;;;;;4880796;29;20509;-83
2023/08/01 13:21:54;;;;;;;1.83;1.10;;;24.00;66.60;;;;;;4895708;29;20036;-82
2023/08/01 13:24:19;;;;;;;2.03;0.98;;;24.10;66.60;;;;;;4911616;29;20506;-83
2023/08/01 13:26:45;;;;;;;2.05;1.20;;;24.10;66.60;;;;;;4887726;29;20045;-83
2023/08/01 13:29:11;;;;;;;1.20;0.95;;;24.10;66.60;;;;;;4892013;29;20036;-83
2023/08/01 13:31:38;;;;;;;2.13;1.20;;;24.10;66.50;;;;;;4864971;29;20033;-83
2023/08/01 13:34:03;;;;;;;2.38;1.40;;;24.10;66.50;;;;;;4877644;29;20043;-83